sensor_id;sensor_type;location;lat;lon;timestamp;temperature;humidity
31733;DHT22;18312;51.486;7.144;2024-03-02T00:00:40;8.20;99.90
31733;DHT22;18312;51.486;7.144;2024-03-02T00:03:08;8.20;99.90
31733;DHT22;18312;51.486;7.144;2024-03-02T00:05:36;8.10;99.90
31733;DHT22;18312;51.486;7.144;2024-03-02T00:08:10;8.10;99.90
31733;DHT22;18312;51.486;7.144;2024-03-02T00:10:39;8.10;99.90
31733;DHT22;18312;51.486;7.144;2024-03-02T00:13:10;8.10;99.90
31733;DHT22;18312;51.486;7.144;2024-03-02T00:15:45;8.10;99.90
31733;DHT22;18312;51.486;7.144;2024-03-02T00:18:16;8.10;99.90
31733;DHT22;18312;51.486;7.144;2024-03-02T00:21:03;8.10;99.90
31733;DHT22;18312;51.486;7.144;2024-03-02T00:23:35;8.10;99.90
31733;DHT22;18312;51.486;7.144;2024-03-02T00:26:03;8.10;99.90
31733;DHT22;18312;51.486;7.144;2024-03-02T00:28:32;8.20;99.90
31733;DHT22;18312;51.486;7.144;2024-03-02T00:31:06;8.20;99.90
31733;DHT22;18312;51.486;7.144;2024-03-02T00:33:41;8.20;99.90
31733;DHT22;18312;51.486;7.144;2024-03-02T00:36:10;8.20;99.90
31733;DHT22;18312;51.486;7.144;2024-03-02T00:38:48;8.10;99.90
31733;DHT22;18312;51.486;7.144;2024-03-02T00:41:21;8.10;99.90
31733;DHT22;18312;51.486;7.144;2024-03-02T00:44:02;8.20;99.90
31733;DHT22;18312;51.486;7.144;2024-03-02T00:46:41;8.20;99.90
31733;DHT22;18312;51.486;7.144;2024-03-02T00:49:19;8.10;99.90
31733;DHT22;18312;51.486;7.144;2024-03-02T00:51:51;8.10;99.90
31733;DHT22;18312;51.486;7.144;2024-03-02T00:54:21;8.10;99.90
31733;DHT22;18312;51.486;7.144;2024-03-02T00:56:54;8.10;99.90
31733;DHT22;18312;51.486;7.144;2024-03-02T00:59:26;8.10;99.90
31733;DHT22;18312;51.486;7.144;2024-03-02T01:02:00;8.00;99.90
31733;DHT22;18312;51.486;7.144;2024-03-02T01:04:28;8.00;99.90
31733;DHT22;18312;51.486;7.144;2024-03-02T01:07:01;8.00;99.90
31733;DHT22;18312;51.486;7.144;2024-03-02T01:09:28;8.10;99.90
31733;DHT22;18312;51.486;7.144;2024-03-02T01:12:01;8.20;99.90
31733;DHT22;18312;51.486;7.144;2024-03-02T01:14:30;8.30;99.90
31733;DHT22;18312;51.486;7.144;2024-03-02T01:17:01;8.30;99.90
31733;DHT22;18312;51.486;7.144;2024-03-02T01:19:32;8.30;99.90
31733;DHT22;18312;51.486;7.144;2024-03-02T01:22:01;8.50;99.90
31733;DHT22;18312;51.486;7.144;2024-03-02T01:24:30;8.50;99.90
31733;DHT22;18312;51.486;7.144;2024-03-02T01:26:59;8.60;99.90
31733;DHT22;18312;51.486;7.144;2024-03-02T01:29:27;8.60;99.90
31733;DHT22;18312;51.486;7.144;2024-03-02T01:31:54;8.60;99.90
31733;DHT22;18312;51.486;7.144;2024-03-02T01:34:23;8.70;99.90
31733;DHT22;18312;51.486;7.144;2024-03-02T01:36:58;8.70;99.90
31733;DHT22;18312;51.486;7.144;2024-03-02T01:39:28;8.80;99.90
31733;DHT22;18312;51.486;7.144;2024-03-02T01:41:55;8.80;99.90
31733;DHT22;18312;51.486;7.144;2024-03-02T01:44:23;8.90;99.90
31733;DHT22;18312;51.486;7.144;2024-03-02T01:46:50;8.90;99.90
31733;DHT22;18312;51.486;7.144;2024-03-02T01:49:17;8.90;99.90
31733;DHT22;18312;51.486;7.144;2024-03-02T01:51:51;8.90;99.90
31733;DHT22;18312;51.486;7.144;2024-03-02T01:54:19;9.00;99.90
31733;DHT22;18312;51.486;7.144;2024-03-02T01:56:53;8.90;99.90
31733;DHT22;18312;51.486;7.144;2024-03-02T01:59:20;8.90;99.90
31733;DHT22;18312;51.486;7.144;2024-03-02T02:01:47;8.80;99.90
31733;DHT22;18312;51.486;7.144;2024-03-02T02:04:14;8.70;99.90
31733;DHT22;18312;51.486;7.144;2024-03-02T02:06:41;8.60;99.90
31733;DHT22;18312;51.486;7.144;2024-03-02T02:09:09;8.60;99.90
31733;DHT22;18312;51.486;7.144;2024-03-02T02:11:35;8.60;99.90
31733;DHT22;18312;51.486;7.144;2024-03-02T02:14:02;8.60;99.90
31733;DHT22;18312;51.486;7.144;2024-03-02T02:16:29;8.60;99.90
31733;DHT22;18312;51.486;7.144;2024-03-02T02:18:56;8.60;99.90
31733;DHT22;18312;51.486;7.144;2024-03-02T02:21:24;8.60;99.90
31733;DHT22;18312;51.486;7.144;2024-03-02T02:23:50;8.70;99.90
31733;DHT22;18312;51.486;7.144;2024-03-02T02:26:17;8.70;99.90
31733;DHT22;18312;51.486;7.144;2024-03-02T02:28:44;8.70;99.90
31733;DHT22;18312;51.486;7.144;2024-03-02T02:31:12;8.70;99.90
31733;DHT22;18312;51.486;7.144;2024-03-02T02:33:39;8.70;99.90
31733;DHT22;18312;51.486;7.144;2024-03-02T02:36:06;8.70;99.90
31733;DHT22;18312;51.486;7.144;2024-03-02T02:38:36;8.70;99.90
31733;DHT22;18312;51.486;7.144;2024-03-02T02:41:04;8.80;99.90
31733;DHT22;18312;51.486;7.144;2024-03-02T02:43:31;8.80;99.90
31733;DHT22;18312;51.486;7.144;2024-03-02T02:45:58;8.90;99.90
31733;DHT22;18312;51.486;7.144;2024-03-02T02:48:24;8.90;99.90
31733;DHT22;18312;51.486;7.144;2024-03-02T02:50:51;8.90;99.90
31733;DHT22;18312;51.486;7.144;2024-03-02T02:53:18;8.90;99.90
31733;DHT22;18312;51.486;7.144;2024-03-02T02:55:46;8.80;99.90
31733;DHT22;18312;51.486;7.144;2024-03-02T02:58:12;8.70;99.90
31733;DHT22;18312;51.486;7.144;2024-03-02T03:00:40;8.70;99.90
31733;DHT22;18312;51.486;7.144;2024-03-02T03:03:07;8.80;99.90
31733;DHT22;18312;51.486;7.144;2024-03-02T03:05:34;8.70;99.90
31733;DHT22;18312;51.486;7.144;2024-03-02T03:08:00;8.70;99.90
31733;DHT22;18312;51.486;7.144;2024-03-02T03:10:28;8.70;99.90
31733;DHT22;18312;51.486;7.144;2024-03-02T03:12:56;8.70;99.90
31733;DHT22;18312;51.486;7.144;2024-03-02T03:15:23;8.80;99.90
31733;DHT22;18312;51.486;7.144;2024-03-02T03:17:49;8.80;99.90
31733;DHT22;18312;51.486;7.144;2024-03-02T03:20:16;8.90;99.90
31733;DHT22;18312;51.486;7.144;2024-03-02T03:22:43;8.90;99.90
31733;DHT22;18312;51.486;7.144;2024-03-02T03:25:10;8.90;99.90
31733;DHT22;18312;51.486;7.144;2024-03-02T03:27:36;9.00;99.90
31733;DHT22;18312;51.486;7.144;2024-03-02T03:30:05;9.00;99.90
31733;DHT22;18312;51.486;7.144;2024-03-02T03:32:32;9.10;99.90
31733;DHT22;18312;51.486;7.144;2024-03-02T03:34:59;9.10;99.90
31733;DHT22;18312;51.486;7.144;2024-03-02T03:37:26;9.10;99.90
31733;DHT22;18312;51.486;7.144;2024-03-02T03:39:58;9.10;99.90
31733;DHT22;18312;51.486;7.144;2024-03-02T03:42:24;9.10;99.90
31733;DHT22;18312;51.486;7.144;2024-03-02T03:44:51;9.10;99.90
31733;DHT22;18312;51.486;7.144;2024-03-02T03:47:19;9.10;99.90
31733;DHT22;18312;51.486;7.144;2024-03-02T03:49:46;9.20;99.90
31733;DHT22;18312;51.486;7.144;2024-03-02T03:52:13;9.20;99.90
31733;DHT22;18312;51.486;7.144;2024-03-02T03:54:40;9.10;99.90
31733;DHT22;18312;51.486;7.144;2024-03-02T03:57:08;9.10;99.90
31733;DHT22;18312;51.486;7.144;2024-03-02T03:59:35;9.10;99.90
31733;DHT22;18312;51.486;7.144;2024-03-02T04:02:03;9.10;99.90
31733;DHT22;18312;51.486;7.144;2024-03-02T04:04:31;9.00;99.90
31733;DHT22;18312;51.486;7.144;2024-03-02T04:06:59;8.90;99.90
31733;DHT22;18312;51.486;7.144;2024-03-02T04:09:25;8.90;99.90
31733;DHT22;18312;51.486;7.144;2024-03-02T04:11:52;8.80;99.90
31733;DHT22;18312;51.486;7.144;2024-03-02T04:14:19;8.80;99.90
31733;DHT22;18312;51.486;7.144;2024-03-02T04:16:46;8.80;99.90
31733;DHT22;18312;51.486;7.144;2024-03-02T04:19:13;8.90;99.90
31733;DHT22;18312;51.486;7.144;2024-03-02T04:21:40;8.90;99.90
31733;DHT22;18312;51.486;7.144;2024-03-02T04:24:07;8.80;99.90
31733;DHT22;18312;51.486;7.144;2024-03-02T04:26:33;8.80;99.90
31733;DHT22;18312;51.486;7.144;2024-03-02T04:29:00;8.90;99.90
31733;DHT22;18312;51.486;7.144;2024-03-02T04:31:27;8.80;99.90
31733;DHT22;18312;51.486;7.144;2024-03-02T04:33:54;8.80;99.90
31733;DHT22;18312;51.486;7.144;2024-03-02T04:36:20;8.80;99.90
31733;DHT22;18312;51.486;7.144;2024-03-02T04:38:49;8.80;99.90
31733;DHT22;18312;51.486;7.144;2024-03-02T04:41:15;8.70;99.90
31733;DHT22;18312;51.486;7.144;2024-03-02T04:43:42;8.80;99.90
31733;DHT22;18312;51.486;7.144;2024-03-02T04:46:09;8.70;99.90
31733;DHT22;18312;51.486;7.144;2024-03-02T04:48:36;8.70;99.90
31733;DHT22;18312;51.486;7.144;2024-03-02T04:51:03;8.60;99.90
31733;DHT22;18312;51.486;7.144;2024-03-02T04:53:30;8.50;99.90
31733;DHT22;18312;51.486;7.144;2024-03-02T04:55:58;8.40;99.90
31733;DHT22;18312;51.486;7.144;2024-03-02T04:58:45;8.30;99.90
31733;DHT22;18312;51.486;7.144;2024-03-02T05:01:12;8.20;99.90
31733;DHT22;18312;51.486;7.144;2024-03-02T05:03:39;8.20;99.90
31733;DHT22;18312;51.486;7.144;2024-03-02T05:06:05;8.10;99.90
31733;DHT22;18312;51.486;7.144;2024-03-02T05:08:34;8.00;99.90
31733;DHT22;18312;51.486;7.144;2024-03-02T05:11:02;8.00;99.90
31733;DHT22;18312;51.486;7.144;2024-03-02T05:13:43;8.00;99.90
31733;DHT22;18312;51.486;7.144;2024-03-02T05:16:09;8.00;99.90
31733;DHT22;18312;51.486;7.144;2024-03-02T05:18:37;8.00;99.90
31733;DHT22;18312;51.486;7.144;2024-03-02T05:21:05;8.00;99.90
31733;DHT22;18312;51.486;7.144;2024-03-02T05:23:31;8.00;99.90
31733;DHT22;18312;51.486;7.144;2024-03-02T05:25:58;8.00;99.90
31733;DHT22;18312;51.486;7.144;2024-03-02T05:28:27;7.90;99.90
31733;DHT22;18312;51.486;7.144;2024-03-02T05:30:53;7.90;99.90
31733;DHT22;18312;51.486;7.144;2024-03-02T05:33:20;7.90;99.90
31733;DHT22;18312;51.486;7.144;2024-03-02T05:35:48;7.90;99.90
31733;DHT22;18312;51.486;7.144;2024-03-02T05:38:15;7.90;99.90
31733;DHT22;18312;51.486;7.144;2024-03-02T05:40:42;7.90;99.90
31733;DHT22;18312;51.486;7.144;2024-03-02T05:43:09;8.00;99.90
31733;DHT22;18312;51.486;7.144;2024-03-02T05:45:51;8.00;99.90
31733;DHT22;18312;51.486;7.144;2024-03-02T05:48:18;7.90;99.90
31733;DHT22;18312;51.486;7.144;2024-03-02T05:50:44;8.00;99.90
31733;DHT22;18312;51.486;7.144;2024-03-02T05:53:11;7.90;99.90
31733;DHT22;18312;51.486;7.144;2024-03-02T05:55:40;7.90;99.90
31733;DHT22;18312;51.486;7.144;2024-03-02T05:58:06;7.90;99.90
31733;DHT22;18312;51.486;7.144;2024-03-02T06:00:48;7.80;99.90
31733;DHT22;18312;51.486;7.144;2024-03-02T06:03:16;7.70;99.90
31733;DHT22;18312;51.486;7.144;2024-03-02T06:05:43;7.70;99.90
31733;DHT22;18312;51.486;7.144;2024-03-02T06:08:09;7.60;99.90
31733;DHT22;18312;51.486;7.144;2024-03-02T06:10:36;7.60;99.90
31733;DHT22;18312;51.486;7.144;2024-03-02T06:13:03;7.50;99.90
31733;DHT22;18312;51.486;7.144;2024-03-02T06:15:30;7.50;99.90
31733;DHT22;18312;51.486;7.144;2024-03-02T06:17:57;7.50;99.90
31733;DHT22;18312;51.486;7.144;2024-03-02T06:20:25;7.50;99.90
31733;DHT22;18312;51.486;7.144;2024-03-02T06:22:52;7.50;99.90
31733;DHT22;18312;51.486;7.144;2024-03-02T06:25:19;7.60;99.90
31733;DHT22;18312;51.486;7.144;2024-03-02T06:27:45;7.50;99.90
31733;DHT22;18312;51.486;7.144;2024-03-02T06:30:13;7.50;99.90
31733;DHT22;18312;51.486;7.144;2024-03-02T06:32:39;7.50;99.90
31733;DHT22;18312;51.486;7.144;2024-03-02T06:35:07;7.40;99.90
31733;DHT22;18312;51.486;7.144;2024-03-02T06:37:37;7.40;99.90
31733;DHT22;18312;51.486;7.144;2024-03-02T06:40:05;7.40;99.90
31733;DHT22;18312;51.486;7.144;2024-03-02T06:42:33;7.40;99.90
31733;DHT22;18312;51.486;7.144;2024-03-02T06:45:00;7.40;99.90
31733;DHT22;18312;51.486;7.144;2024-03-02T06:47:27;7.40;99.90
31733;DHT22;18312;51.486;7.144;2024-03-02T06:49:54;7.30;99.90
31733;DHT22;18312;51.486;7.144;2024-03-02T06:52:22;7.40;99.90
31733;DHT22;18312;51.486;7.144;2024-03-02T06:54:50;7.40;99.90
31733;DHT22;18312;51.486;7.144;2024-03-02T06:57:17;7.40;99.90
31733;DHT22;18312;51.486;7.144;2024-03-02T06:59:46;7.40;99.90
31733;DHT22;18312;51.486;7.144;2024-03-02T07:02:13;7.40;99.90
31733;DHT22;18312;51.486;7.144;2024-03-02T07:04:39;7.50;99.90
31733;DHT22;18312;51.486;7.144;2024-03-02T07:07:06;7.40;99.90
31733;DHT22;18312;51.486;7.144;2024-03-02T07:09:33;7.50;99.90
31733;DHT22;18312;51.486;7.144;2024-03-02T07:12:02;7.60;99.90
31733;DHT22;18312;51.486;7.144;2024-03-02T07:14:29;7.60;99.90
31733;DHT22;18312;51.486;7.144;2024-03-02T07:17:09;7.70;99.90
31733;DHT22;18312;51.486;7.144;2024-03-02T07:19:38;7.80;99.90
31733;DHT22;18312;51.486;7.144;2024-03-02T07:22:06;7.90;99.90
31733;DHT22;18312;51.486;7.144;2024-03-02T07:24:39;8.00;99.90
31733;DHT22;18312;51.486;7.144;2024-03-02T07:27:09;10.40;99.20
31733;DHT22;18312;51.486;7.144;2024-03-02T07:29:37;12.40;91.80
31733;DHT22;18312;51.486;7.144;2024-03-02T07:32:05;11.50;92.30
31733;DHT22;18312;51.486;7.144;2024-03-02T07:34:32;10.30;95.80
31733;DHT22;18312;51.486;7.144;2024-03-02T07:36:59;9.80;98.00
31733;DHT22;18312;51.486;7.144;2024-03-02T07:39:27;9.70;98.70
31733;DHT22;18312;51.486;7.144;2024-03-02T07:41:54;10.70;97.40
31733;DHT22;18312;51.486;7.144;2024-03-02T07:44:22;13.30;91.30
31733;DHT22;18312;51.486;7.144;2024-03-02T07:46:49;14.40;84.70
31733;DHT22;18312;51.486;7.144;2024-03-02T07:49:16;16.00;79.70
31733;DHT22;18312;51.486;7.144;2024-03-02T07:51:43;17.60;72.80
31733;DHT22;18312;51.486;7.144;2024-03-02T07:54:10;17.50;68.10
31733;DHT22;18312;51.486;7.144;2024-03-02T07:56:37;17.40;68.10
31733;DHT22;18312;51.486;7.144;2024-03-02T07:59:04;18.60;62.80
31733;DHT22;18312;51.486;7.144;2024-03-02T08:01:32;18.30;60.50
31733;DHT22;18312;51.486;7.144;2024-03-02T08:04:00;19.10;57.70
31733;DHT22;18312;51.486;7.144;2024-03-02T08:06:29;19.50;54.30
31733;DHT22;18312;51.486;7.144;2024-03-02T08:08:56;18.90;54.30
31733;DHT22;18312;51.486;7.144;2024-03-02T08:11:23;19.50;52.70
31733;DHT22;18312;51.486;7.144;2024-03-02T08:13:50;18.80;52.00
31733;DHT22;18312;51.486;7.144;2024-03-02T08:16:17;19.20;51.60
31733;DHT22;18312;51.486;7.144;2024-03-02T08:18:47;18.60;51.70
31733;DHT22;18312;51.486;7.144;2024-03-02T08:21:14;18.20;51.60
31733;DHT22;18312;51.486;7.144;2024-03-02T08:23:41;17.80;52.00
31733;DHT22;18312;51.486;7.144;2024-03-02T08:26:09;15.90;56.30
31733;DHT22;18312;51.486;7.144;2024-03-02T08:28:36;14.40;60.60
31733;DHT22;18312;51.486;7.144;2024-03-02T08:31:03;13.60;63.80
31733;DHT22;18312;51.486;7.144;2024-03-02T08:33:30;12.70;67.30
31733;DHT22;18312;51.486;7.144;2024-03-02T08:36:00;12.50;69.30
31733;DHT22;18312;51.486;7.144;2024-03-02T08:38:28;13.40;67.30
31733;DHT22;18312;51.486;7.144;2024-03-02T08:40:55;14.20;66.70
31733;DHT22;18312;51.486;7.144;2024-03-02T08:43:22;15.70;62.20
31733;DHT22;18312;51.486;7.144;2024-03-02T08:45:49;17.00;58.70
31733;DHT22;18312;51.486;7.144;2024-03-02T08:48:16;17.90;57.40
31733;DHT22;18312;51.486;7.144;2024-03-02T08:50:43;16.70;58.00
31733;DHT22;18312;51.486;7.144;2024-03-02T08:53:11;16.40;57.70
31733;DHT22;18312;51.486;7.144;2024-03-02T08:55:38;17.30;56.60
31733;DHT22;18312;51.486;7.144;2024-03-02T08:58:05;17.40;56.50
31733;DHT22;18312;51.486;7.144;2024-03-02T09:00:32;16.40;57.50
31733;DHT22;18312;51.486;7.144;2024-03-02T09:02:59;14.80;60.50
31733;DHT22;18312;51.486;7.144;2024-03-02T09:05:25;13.50;65.20
31733;DHT22;18312;51.486;7.144;2024-03-02T09:07:52;12.70;68.00
31733;DHT22;18312;51.486;7.144;2024-03-02T09:10:20;12.10;71.30
31733;DHT22;18312;51.486;7.144;2024-03-02T09:12:47;11.70;72.40
31733;DHT22;18312;51.486;7.144;2024-03-02T09:15:14;11.80;75.10
31733;DHT22;18312;51.486;7.144;2024-03-02T09:17:41;11.80;77.40
31733;DHT22;18312;51.486;7.144;2024-03-02T09:20:08;11.80;77.10
31733;DHT22;18312;51.486;7.144;2024-03-02T09:22:35;11.60;77.60
31733;DHT22;18312;51.486;7.144;2024-03-02T09:25:03;11.70;79.10
31733;DHT22;18312;51.486;7.144;2024-03-02T09:27:31;11.70;78.90
31733;DHT22;18312;51.486;7.144;2024-03-02T09:29:58;11.60;79.40
31733;DHT22;18312;51.486;7.144;2024-03-02T09:32:24;11.70;79.10
31733;DHT22;18312;51.486;7.144;2024-03-02T09:34:51;11.70;79.50
31733;DHT22;18312;51.486;7.144;2024-03-02T09:37:18;11.70;80.10
31733;DHT22;18312;51.486;7.144;2024-03-02T09:39:46;11.80;78.70
31733;DHT22;18312;51.486;7.144;2024-03-02T09:42:13;11.80;78.90
31733;DHT22;18312;51.486;7.144;2024-03-02T09:44:42;11.90;79.40
31733;DHT22;18312;51.486;7.144;2024-03-02T09:47:09;11.90;79.60
31733;DHT22;18312;51.486;7.144;2024-03-02T09:49:35;12.00;80.00
31733;DHT22;18312;51.486;7.144;2024-03-02T09:52:03;12.00;78.80
31733;DHT22;18312;51.486;7.144;2024-03-02T09:54:31;12.10;80.40
31733;DHT22;18312;51.486;7.144;2024-03-02T09:56:58;12.20;78.60
31733;DHT22;18312;51.486;7.144;2024-03-02T09:59:27;12.10;77.10
31733;DHT22;18312;51.486;7.144;2024-03-02T10:01:59;12.00;76.80
31733;DHT22;18312;51.486;7.144;2024-03-02T10:04:27;12.00;77.10
31733;DHT22;18312;51.486;7.144;2024-03-02T10:07:10;12.10;76.30
31733;DHT22;18312;51.486;7.144;2024-03-02T10:09:37;12.10;77.20
31733;DHT22;18312;51.486;7.144;2024-03-02T10:12:04;12.10;78.10
31733;DHT22;18312;51.486;7.144;2024-03-02T10:14:31;12.20;77.50
31733;DHT22;18312;51.486;7.144;2024-03-02T10:17:04;12.20;76.90
31733;DHT22;18312;51.486;7.144;2024-03-02T10:19:31;12.30;77.00
31733;DHT22;18312;51.486;7.144;2024-03-02T10:21:59;12.50;77.70
31733;DHT22;18312;51.486;7.144;2024-03-02T10:24:26;12.60;77.40
31733;DHT22;18312;51.486;7.144;2024-03-02T10:26:53;12.60;77.70
31733;DHT22;18312;51.486;7.144;2024-03-02T10:29:20;12.50;78.30
31733;DHT22;18312;51.486;7.144;2024-03-02T10:31:46;12.70;77.90
31733;DHT22;18312;51.486;7.144;2024-03-02T10:34:15;12.80;77.50
31733;DHT22;18312;51.486;7.144;2024-03-02T10:36:43;12.70;76.10
31733;DHT22;18312;51.486;7.144;2024-03-02T10:39:13;12.70;76.70
31733;DHT22;18312;51.486;7.144;2024-03-02T10:41:41;12.70;76.80
31733;DHT22;18312;51.486;7.144;2024-03-02T10:44:09;12.70;75.70
31733;DHT22;18312;51.486;7.144;2024-03-02T10:46:36;12.70;76.90
31733;DHT22;18312;51.486;7.144;2024-03-02T10:49:05;12.90;77.00
31733;DHT22;18312;51.486;7.144;2024-03-02T10:51:34;13.10;75.90
31733;DHT22;18312;51.486;7.144;2024-03-02T10:54:02;13.10;74.80
31733;DHT22;18312;51.486;7.144;2024-03-02T10:56:31;13.20;74.70
31733;DHT22;18312;51.486;7.144;2024-03-02T10:59:03;13.20;74.30
31733;DHT22;18312;51.486;7.144;2024-03-02T11:01:32;13.30;73.50
31733;DHT22;18312;51.486;7.144;2024-03-02T11:03:59;13.40;75.10
31733;DHT22;18312;51.486;7.144;2024-03-02T11:06:29;13.50;74.90
31733;DHT22;18312;51.486;7.144;2024-03-02T11:09:02;13.70;76.00
31733;DHT22;18312;51.486;7.144;2024-03-02T11:11:37;14.00;73.40
31733;DHT22;18312;51.486;7.144;2024-03-02T11:14:11;13.90;72.30
31733;DHT22;18312;51.486;7.144;2024-03-02T11:16:40;13.90;72.00
31733;DHT22;18312;51.486;7.144;2024-03-02T11:19:10;13.90;71.80
31733;DHT22;18312;51.486;7.144;2024-03-02T11:21:38;14.00;70.60
31733;DHT22;18312;51.486;7.144;2024-03-02T11:24:31;14.00;70.00
31733;DHT22;18312;51.486;7.144;2024-03-02T11:27:02;14.10;70.30
31733;DHT22;18312;51.486;7.144;2024-03-02T11:29:46;14.00;69.00
31733;DHT22;18312;51.486;7.144;2024-03-02T11:32:15;14.10;69.10
31733;DHT22;18312;51.486;7.144;2024-03-02T11:34:42;14.30;70.70
31733;DHT22;18312;51.486;7.144;2024-03-02T11:37:12;14.40;67.70
31733;DHT22;18312;51.486;7.144;2024-03-02T11:39:42;14.30;66.90
31733;DHT22;18312;51.486;7.144;2024-03-02T11:42:11;14.40;67.70
31733;DHT22;18312;51.486;7.144;2024-03-02T11:44:40;14.50;67.70
31733;DHT22;18312;51.486;7.144;2024-03-02T11:47:08;14.50;66.40
31733;DHT22;18312;51.486;7.144;2024-03-02T11:49:38;14.60;67.60
31733;DHT22;18312;51.486;7.144;2024-03-02T11:52:06;14.70;66.50
31733;DHT22;18312;51.486;7.144;2024-03-02T11:54:33;14.90;67.60
31733;DHT22;18312;51.486;7.144;2024-03-02T11:57:03;14.80;65.20
31733;DHT22;18312;51.486;7.144;2024-03-02T11:59:30;14.80;64.60
31733;DHT22;18312;51.486;7.144;2024-03-02T12:01:58;14.80;65.00
31733;DHT22;18312;51.486;7.144;2024-03-02T12:04:27;15.00;65.30
31733;DHT22;18312;51.486;7.144;2024-03-02T12:06:55;14.90;65.90
31733;DHT22;18312;51.486;7.144;2024-03-02T12:09:25;15.00;66.00
31733;DHT22;18312;51.486;7.144;2024-03-02T12:12:03;15.20;66.20
31733;DHT22;18312;51.486;7.144;2024-03-02T12:14:31;15.40;64.40
31733;DHT22;18312;51.486;7.144;2024-03-02T12:16:58;15.60;66.10
31733;DHT22;18312;51.486;7.144;2024-03-02T12:19:25;15.50;63.90
31733;DHT22;18312;51.486;7.144;2024-03-02T12:21:52;15.50;65.00
31733;DHT22;18312;51.486;7.144;2024-03-02T12:24:20;15.60;65.70
31733;DHT22;18312;51.486;7.144;2024-03-02T12:26:48;15.60;65.30
31733;DHT22;18312;51.486;7.144;2024-03-02T12:29:19;15.60;64.50
31733;DHT22;18312;51.486;7.144;2024-03-02T12:31:48;15.70;63.90
31733;DHT22;18312;51.486;7.144;2024-03-02T12:34:16;15.70;64.30
31733;DHT22;18312;51.486;7.144;2024-03-02T12:36:44;15.70;65.20
31733;DHT22;18312;51.486;7.144;2024-03-02T12:39:13;15.80;64.60
31733;DHT22;18312;51.486;7.144;2024-03-02T12:41:41;15.80;63.70
31733;DHT22;18312;51.486;7.144;2024-03-02T12:44:08;15.60;63.80
31733;DHT22;18312;51.486;7.144;2024-03-02T12:46:37;15.60;65.50
31733;DHT22;18312;51.486;7.144;2024-03-02T12:49:10;15.70;64.10
31733;DHT22;18312;51.486;7.144;2024-03-02T12:51:38;15.60;65.80
31733;DHT22;18312;51.486;7.144;2024-03-02T12:54:06;15.80;65.40
31733;DHT22;18312;51.486;7.144;2024-03-02T12:56:33;15.90;64.60
31733;DHT22;18312;51.486;7.144;2024-03-02T12:59:00;15.80;64.00
31733;DHT22;18312;51.486;7.144;2024-03-02T13:01:27;15.70;62.20
31733;DHT22;18312;51.486;7.144;2024-03-02T13:03:55;15.80;63.20
31733;DHT22;18312;51.486;7.144;2024-03-02T13:06:23;15.90;62.50
31733;DHT22;18312;51.486;7.144;2024-03-02T13:08:53;15.70;61.30
31733;DHT22;18312;51.486;7.144;2024-03-02T13:11:21;15.80;62.20
31733;DHT22;18312;51.486;7.144;2024-03-02T13:13:48;16.00;62.30
31733;DHT22;18312;51.486;7.144;2024-03-02T13:16:16;16.10;62.20
31733;DHT22;18312;51.486;7.144;2024-03-02T13:18:45;16.20;63.10
31733;DHT22;18312;51.486;7.144;2024-03-02T13:21:13;16.00;62.80
31733;DHT22;18312;51.486;7.144;2024-03-02T13:23:40;16.10;62.40
31733;DHT22;18312;51.486;7.144;2024-03-02T13:26:07;16.00;62.20
31733;DHT22;18312;51.486;7.144;2024-03-02T13:28:36;15.70;62.80
31733;DHT22;18312;51.486;7.144;2024-03-02T13:31:04;15.40;62.50
31733;DHT22;18312;51.486;7.144;2024-03-02T13:33:32;15.30;63.60
31733;DHT22;18312;51.486;7.144;2024-03-02T13:35:59;15.40;64.30
31733;DHT22;18312;51.486;7.144;2024-03-02T13:38:28;15.30;64.20
31733;DHT22;18312;51.486;7.144;2024-03-02T13:40:56;15.10;64.60
31733;DHT22;18312;51.486;7.144;2024-03-02T13:43:24;15.10;65.30
31733;DHT22;18312;51.486;7.144;2024-03-02T13:45:51;15.10;64.00
31733;DHT22;18312;51.486;7.144;2024-03-02T13:48:19;15.00;64.10
31733;DHT22;18312;51.486;7.144;2024-03-02T13:50:46;15.00;63.70
31733;DHT22;18312;51.486;7.144;2024-03-02T13:53:13;15.00;63.60
31733;DHT22;18312;51.486;7.144;2024-03-02T13:55:41;15.10;63.40
31733;DHT22;18312;51.486;7.144;2024-03-02T13:58:09;15.20;63.50
31733;DHT22;18312;51.486;7.144;2024-03-02T14:00:36;15.30;64.40
31733;DHT22;18312;51.486;7.144;2024-03-02T14:03:04;15.10;63.60
31733;DHT22;18312;51.486;7.144;2024-03-02T14:05:32;15.10;63.90
31733;DHT22;18312;51.486;7.144;2024-03-02T14:07:59;15.20;63.80
31733;DHT22;18312;51.486;7.144;2024-03-02T14:10:26;15.30;64.30
31733;DHT22;18312;51.486;7.144;2024-03-02T14:12:55;15.30;64.00
31733;DHT22;18312;51.486;7.144;2024-03-02T14:15:22;15.10;64.10
31733;DHT22;18312;51.486;7.144;2024-03-02T14:17:50;15.20;63.90
31733;DHT22;18312;51.486;7.144;2024-03-02T14:20:17;15.00;64.00
31733;DHT22;18312;51.486;7.144;2024-03-02T14:22:48;15.00;63.70
31733;DHT22;18312;51.486;7.144;2024-03-02T14:25:15;15.20;63.80
31733;DHT22;18312;51.486;7.144;2024-03-02T14:27:42;15.20;63.90
31733;DHT22;18312;51.486;7.144;2024-03-02T14:30:12;15.20;64.10
31733;DHT22;18312;51.486;7.144;2024-03-02T14:32:39;15.00;64.20
31733;DHT22;18312;51.486;7.144;2024-03-02T14:35:06;15.10;63.70
31733;DHT22;18312;51.486;7.144;2024-03-02T14:37:36;15.30;63.60
31733;DHT22;18312;51.486;7.144;2024-03-02T14:40:03;15.30;63.60
31733;DHT22;18312;51.486;7.144;2024-03-02T14:42:32;15.40;63.60
31733;DHT22;18312;51.486;7.144;2024-03-02T14:44:59;15.40;63.60
31733;DHT22;18312;51.486;7.144;2024-03-02T14:47:28;15.30;63.20
31733;DHT22;18312;51.486;7.144;2024-03-02T14:49:55;15.10;63.30
31733;DHT22;18312;51.486;7.144;2024-03-02T14:52:22;15.20;64.00
31733;DHT22;18312;51.486;7.144;2024-03-02T14:54:49;15.40;63.90
31733;DHT22;18312;51.486;7.144;2024-03-02T14:57:16;15.40;63.10
31733;DHT22;18312;51.486;7.144;2024-03-02T14:59:43;15.40;63.10
31733;DHT22;18312;51.486;7.144;2024-03-02T15:02:10;15.20;63.50
31733;DHT22;18312;51.486;7.144;2024-03-02T15:04:38;15.20;64.10
31733;DHT22;18312;51.486;7.144;2024-03-02T15:07:05;15.30;64.50
31733;DHT22;18312;51.486;7.144;2024-03-02T15:09:32;15.20;63.40
31733;DHT22;18312;51.486;7.144;2024-03-02T15:12:01;15.10;64.20
31733;DHT22;18312;51.486;7.144;2024-03-02T15:14:28;15.10;64.90
31733;DHT22;18312;51.486;7.144;2024-03-02T15:16:55;15.10;64.50
31733;DHT22;18312;51.486;7.144;2024-03-02T15:19:23;15.10;64.80
31733;DHT22;18312;51.486;7.144;2024-03-02T15:21:51;15.00;64.80
31733;DHT22;18312;51.486;7.144;2024-03-02T15:24:18;14.90;65.20
31733;DHT22;18312;51.486;7.144;2024-03-02T15:26:45;14.80;66.20
31733;DHT22;18312;51.486;7.144;2024-03-02T15:29:11;14.80;66.30
31733;DHT22;18312;51.486;7.144;2024-03-02T15:31:38;14.70;66.50
31733;DHT22;18312;51.486;7.144;2024-03-02T15:34:05;14.60;66.60
31733;DHT22;18312;51.486;7.144;2024-03-02T15:36:34;14.60;66.80
31733;DHT22;18312;51.486;7.144;2024-03-02T15:39:03;14.50;67.20
31733;DHT22;18312;51.486;7.144;2024-03-02T15:41:34;14.50;67.40
31733;DHT22;18312;51.486;7.144;2024-03-02T15:44:01;14.40;67.70